createdAt,value
2022-11-21T00:01:18.262Z,24.20
2022-11-21T00:03:45.907Z,24.50
2022-11-21T00:06:13.341Z,25.65
2022-11-21T00:08:40.869Z,28.83
2022-11-21T00:11:08.507Z,30.05
2022-11-21T00:13:35.906Z,29.25
2022-11-21T00:16:05.146Z,27.60
2022-11-21T00:18:34.547Z,32.47
2022-11-21T00:21:11.565Z,28.58
2022-11-21T00:23:39.145Z,30.08
2022-11-21T00:26:07.414Z,29.00
2022-11-21T00:28:35.035Z,30.98
2022-11-21T00:31:03.558Z,29.10
2022-11-21T00:33:31.666Z,31.65
2022-11-21T00:35:59.013Z,29.02
2022-11-21T00:38:27.492Z,29.40
2022-11-21T00:40:54.839Z,27.50
2022-11-21T00:43:22.225Z,26.98
2022-11-21T00:45:49.786Z,28.45
2022-11-21T00:48:17.118Z,28.90
2022-11-21T00:50:44.394Z,30.95
2022-11-21T00:53:11.983Z,29.77
2022-11-21T00:55:39.335Z,26.95
2022-11-21T00:58:06.692Z,33.65
2022-11-21T01:00:34.359Z,35.85
2022-11-21T01:03:01.675Z,27.83
2022-11-21T01:05:29.001Z,31.08
2022-11-21T01:07:56.613Z,29.37
2022-11-21T01:10:24.150Z,27.48
2022-11-21T01:12:51.430Z,29.02
2022-11-21T01:15:18.990Z,27.55
2022-11-21T01:17:46.358Z,27.48
2022-11-21T01:20:14.536Z,27.27
2022-11-21T01:22:42.140Z,35.95
2022-11-21T01:25:09.602Z,27.55
2022-11-21T01:27:36.876Z,26.45
2022-11-21T01:30:04.952Z,31.27
2022-11-21T01:32:32.334Z,35.65
2022-11-21T01:34:59.743Z,32.55
2022-11-21T01:37:27.415Z,32.95
2022-11-21T01:39:55.172Z,31.20
2022-11-21T01:42:22.561Z,27.15
2022-11-21T01:44:53.411Z,30.02
2022-11-21T01:47:22.726Z,27.92
2022-11-21T01:49:52.483Z,31.35
2022-11-21T01:52:25.432Z,31.95
2022-11-21T01:55:03.133Z,27.35
2022-11-21T01:57:57.133Z,30.65
2022-11-21T02:00:27.006Z,25.48
2022-11-21T02:02:58.308Z,28.38
2022-11-21T02:05:28.577Z,26.62
2022-11-21T02:07:58.951Z,28.52
2022-11-21T02:10:27.112Z,26.83
2022-11-21T02:12:56.911Z,24.17
2022-11-21T02:15:27.070Z,28.30
2022-11-21T02:17:54.801Z,28.20
2022-11-21T02:20:25.045Z,28.23
2022-11-21T02:23:11.093Z,27.67
2022-11-21T02:25:41.456Z,27.05
2022-11-21T02:28:15.260Z,29.10
2022-11-21T02:30:43.587Z,25.33
2022-11-21T02:33:11.519Z,26.08
2022-11-21T02:35:39.099Z,28.02
2022-11-21T02:38:10.116Z,27.17
2022-11-21T02:40:43.945Z,24.63
2022-11-21T02:43:21.926Z,28.33
2022-11-21T02:45:49.359Z,27.98
2022-11-21T02:48:16.912Z,25.98
2022-11-21T02:50:46.094Z,26.35
2022-11-21T02:53:15.734Z,23.73
2022-11-21T02:55:43.924Z,23.45
2022-11-21T02:58:11.843Z,24.50
2022-11-21T03:00:40.505Z,25.20
2022-11-21T03:03:08.691Z,25.65
2022-11-21T03:05:36.112Z,26.83
2022-11-21T03:08:03.773Z,26.15
2022-11-21T03:10:31.400Z,28.40
2022-11-21T03:13:01.806Z,24.27
2022-11-21T03:15:32.025Z,22.17
2022-11-21T03:18:03.462Z,25.15
2022-11-21T03:20:32.481Z,26.35
2022-11-21T03:23:00.105Z,22.95
2022-11-21T03:25:28.067Z,21.20
2022-11-21T03:27:55.550Z,21.50
2022-11-21T03:30:24.707Z,19.35
2022-11-21T03:32:55.366Z,21.55
2022-11-21T03:35:23.162Z,21.50
2022-11-21T03:37:50.583Z,20.70
2022-11-21T03:40:17.992Z,21.33
2022-11-21T03:42:45.537Z,19.02
2022-11-21T03:45:12.866Z,20.15
2022-11-21T03:47:40.192Z,21.55
2022-11-21T03:50:08.083Z,24.17
2022-11-21T03:52:35.379Z,22.87
2022-11-21T03:55:02.962Z,24.95
2022-11-21T03:57:30.579Z,25.27
2022-11-21T03:59:57.926Z,25.45
2022-11-21T04:02:25.210Z,22.83
2022-11-21T04:04:52.815Z,27.70
2022-11-21T04:07:20.251Z,26.48
2022-11-21T04:09:47.651Z,23.17
2022-11-21T04:12:15.260Z,25.30
2022-11-21T04:14:42.539Z,28.08
2022-11-21T04:17:10.051Z,22.42
2022-11-21T04:19:37.730Z,23.33
2022-11-21T04:22:05.289Z,22.42
2022-11-21T04:24:32.633Z,24.45
2022-11-21T04:27:00.176Z,23.45
2022-11-21T04:29:27.544Z,24.00
2022-11-21T04:31:54.886Z,24.85
2022-11-21T04:34:22.551Z,22.33
2022-11-21T04:36:49.922Z,21.87
2022-11-21T04:39:17.293Z,23.50
2022-11-21T04:41:44.899Z,23.12
2022-11-21T04:44:12.257Z,28.23
2022-11-21T04:46:39.585Z,24.02
2022-11-21T04:49:07.189Z,24.83
2022-11-21T04:51:34.544Z,24.00
2022-11-21T04:54:01.902Z,24.20
2022-11-21T04:56:29.542Z,24.00
2022-11-21T04:58:56.858Z,26.90
2022-11-21T05:01:24.226Z,26.52
2022-11-21T05:03:52.779Z,28.35
2022-11-21T05:06:20.141Z,32.95
2022-11-21T05:08:52.111Z,33.33
2022-11-21T05:11:39.982Z,32.13
2022-11-21T05:14:07.308Z,31.92
2022-11-21T05:16:35.203Z,32.55
2022-11-21T05:19:02.492Z,28.70
2022-11-21T05:21:30.093Z,32.90
2022-11-21T05:23:57.649Z,35.28
2022-11-21T05:26:24.969Z,32.30
2022-11-21T05:28:52.251Z,30.10
2022-11-21T05:31:19.874Z,37.97
2022-11-21T05:33:47.194Z,46.05
2022-11-21T05:36:14.464Z,26.77
2022-11-21T05:38:42.084Z,30.58
2022-11-21T05:41:09.849Z,28.20
2022-11-21T05:43:45.721Z,33.83
2022-11-21T05:46:14.701Z,28.77
2022-11-21T05:48:42.264Z,32.60
2022-11-21T05:51:09.874Z,48.90
2022-11-21T05:53:37.653Z,65.32
2022-11-21T05:56:10.782Z,86.05
2022-11-21T05:58:39.095Z,30.35
2022-11-21T06:01:07.193Z,46.85
2022-11-21T06:03:37.260Z,38.08
2022-11-21T06:06:16.966Z,40.72
2022-11-21T06:08:47.541Z,67.28
2022-11-21T06:11:16.588Z,52.75
2022-11-21T06:13:44.521Z,29.77
2022-11-21T06:16:14.717Z,83.87
2022-11-21T06:18:44.214Z,45.08
2022-11-21T06:21:15.825Z,78.12
2022-11-21T06:23:43.593Z,43.92
2022-11-21T06:26:16.162Z,28.33
2022-11-21T06:28:44.777Z,38.10
2022-11-21T06:31:16.930Z,30.33
2022-11-21T06:36:16.888Z,38.30
2022-11-21T06:41:19.493Z,74.30
2022-11-21T06:43:47.041Z,78.85
2022-11-21T06:46:15.182Z,29.75
2022-11-21T06:48:43.132Z,28.58
2022-11-21T06:51:17.317Z,44.05
2022-11-21T06:53:45.417Z,78.55
2022-11-21T06:56:12.745Z,48.65
2022-11-21T06:58:40.073Z,53.05
2022-11-21T07:01:09.506Z,66.28
2022-11-21T07:03:37.377Z,51.05
2022-11-21T07:06:05.053Z,37.20
2022-11-21T07:08:36.001Z,49.05
2022-11-21T07:13:53.160Z,30.33
2022-11-21T07:16:20.492Z,44.15
2022-11-21T07:18:47.847Z,29.17
2022-11-21T07:21:15.425Z,39.05
2022-11-21T07:23:42.760Z,30.08
2022-11-21T07:26:10.459Z,42.67
2022-11-21T07:28:38.326Z,31.52
2022-11-21T07:31:11.686Z,39.08
2022-11-21T07:33:43.093Z,44.22
2022-11-21T07:36:11.568Z,39.22
2022-11-21T07:38:38.977Z,38.00
2022-11-21T07:41:06.546Z,37.83
2022-11-21T07:43:33.818Z,35.88
2022-11-21T07:46:01.160Z,32.83
2022-11-21T07:48:28.735Z,46.70
2022-11-21T07:50:56.039Z,32.38
2022-11-21T07:53:24.201Z,32.53
2022-11-21T07:55:51.762Z,37.97
2022-11-21T07:58:19.058Z,32.75
2022-11-21T08:00:46.394Z,30.37
2022-11-21T08:03:14.006Z,33.47
2022-11-21T08:05:43.259Z,28.75
2022-11-21T08:08:14.078Z,30.98
2022-11-21T08:10:43.623Z,28.55
2022-11-21T08:13:11.737Z,25.48
2022-11-21T08:15:39.284Z,26.02
2022-11-21T08:18:10.817Z,23.70
2022-11-21T08:20:38.574Z,24.40
2022-11-21T08:23:06.564Z,26.15
2022-11-21T08:25:34.683Z,30.98
2022-11-21T08:28:02.921Z,26.08
2022-11-21T08:30:30.837Z,24.83
2022-11-21T08:32:59.207Z,25.10
2022-11-21T08:35:26.980Z,23.12
2022-11-21T08:37:58.398Z,25.65
2022-11-21T08:40:27.848Z,27.10
2022-11-21T08:43:06.895Z,23.90
2022-11-21T08:45:36.032Z,24.17
2022-11-21T08:48:03.632Z,19.15
2022-11-21T08:50:32.075Z,19.58
2022-11-21T08:53:01.472Z,18.83
2022-11-21T08:55:29.283Z,19.00
2022-11-21T08:57:56.645Z,19.02
2022-11-21T09:00:24.467Z,18.08
2022-11-21T09:02:51.830Z,17.83
2022-11-21T09:05:19.207Z,18.17
2022-11-21T09:07:47.557Z,19.35
2022-11-21T09:10:15.334Z,18.98
2022-11-21T09:12:43.276Z,20.65
2022-11-21T09:15:30.075Z,18.92
2022-11-21T09:18:04.405Z,20.20
2022-11-21T09:20:34.172Z,23.30
2022-11-21T09:23:10.148Z,21.67
2022-11-21T09:25:37.726Z,25.75
2022-11-21T09:28:07.007Z,25.98
2022-11-21T09:30:34.658Z,27.00
2022-11-21T09:33:06.489Z,22.85
2022-11-21T09:35:33.876Z,24.73
2022-11-21T09:38:01.225Z,19.37
2022-11-21T09:40:30.338Z,21.15
2022-11-21T09:43:06.668Z,17.77
2022-11-21T09:45:35.132Z,20.40
2022-11-21T09:48:11.865Z,23.30
2022-11-21T09:50:42.950Z,23.05
2022-11-21T09:53:15.083Z,19.48
2022-11-21T09:55:52.234Z,19.77
2022-11-21T09:58:25.307Z,22.02
2022-11-21T10:00:53.564Z,17.35
2022-11-21T10:03:29.301Z,19.67
2022-11-21T10:06:01.820Z,17.70
2022-11-21T10:08:42.848Z,17.85
2022-11-21T10:11:34.689Z,18.35
2022-11-21T10:14:09.836Z,17.45
2022-11-21T10:16:57.258Z,16.75
2022-11-21T10:19:38.272Z,18.12
2022-11-21T10:22:17.901Z,16.17
2022-11-21T10:25:17.557Z,16.62
2022-11-21T10:27:51.701Z,16.33
2022-11-21T10:30:21.010Z,20.83
2022-11-21T10:32:57.475Z,34.47
2022-11-21T10:35:34.222Z,25.55
2022-11-21T10:38:03.112Z,30.48
2022-11-21T10:40:49.290Z,21.50
2022-11-21T10:43:41.353Z,16.52
2022-11-21T10:46:09.598Z,16.80
2022-11-21T10:48:36.896Z,16.40
2022-11-21T10:51:13.073Z,17.15
2022-11-21T10:54:04.559Z,16.42
2022-11-21T10:56:35.070Z,16.25
2022-11-21T10:59:12.307Z,15.45
2022-11-21T11:01:39.715Z,16.00
2022-11-21T11:07:00.159Z,13.95
2022-11-21T11:09:30.978Z,13.65
2022-11-21T11:12:22.987Z,13.95
2022-11-21T11:14:56.270Z,17.30
2022-11-21T11:17:29.024Z,16.65
2022-11-21T11:20:01.326Z,16.52
2022-11-21T11:22:30.347Z,17.77
2022-11-21T11:25:00.728Z,13.85
2022-11-21T11:27:29.592Z,16.98
2022-11-21T11:29:56.907Z,137.48
2022-11-21T11:32:24.782Z,61.63
2022-11-21T11:35:01.298Z,40.33
2022-11-21T11:37:47.078Z,23.02
2022-11-21T11:40:41.637Z,23.62
2022-11-21T11:43:47.170Z,20.88
2022-11-21T11:46:45.422Z,17.52
2022-11-21T11:49:21.131Z,17.50
2022-11-21T11:51:54.729Z,22.58
2022-11-21T11:54:26.855Z,19.17
2022-11-21T11:56:54.279Z,17.67
2022-11-21T11:59:41.397Z,16.80
2022-11-21T12:02:44.273Z,16.27
2022-11-21T12:05:19.047Z,18.10
2022-11-21T12:08:39.662Z,18.77
2022-11-21T12:11:10.105Z,18.73
2022-11-21T12:13:37.659Z,19.10
2022-11-21T12:16:13.222Z,23.87
2022-11-21T12:18:58.994Z,17.70
2022-11-21T12:21:26.731Z,19.33
2022-11-21T12:23:55.885Z,17.85
2022-11-21T12:26:37.695Z,15.77
2022-11-21T12:29:37.122Z,18.65
2022-11-21T12:32:16.477Z,18.95
2022-11-21T12:35:01.741Z,25.70
2022-11-21T12:37:38.215Z,26.37
2022-11-21T12:40:43.053Z,28.40
2022-11-21T12:43:41.022Z,28.20
2022-11-21T12:46:23.866Z,23.85
2022-11-21T12:52:17.474Z,42.13
2022-11-21T12:54:58.276Z,24.58
2022-11-21T12:57:50.510Z,19.92
2022-11-21T13:00:44.704Z,16.10
2022-11-21T13:03:28.157Z,15.13
2022-11-21T13:05:56.064Z,15.60
2022-11-21T13:08:27.394Z,16.85
2022-11-21T13:11:28.210Z,16.40
2022-11-21T13:14:25.255Z,18.33
2022-11-21T13:17:07.522Z,19.35
2022-11-21T13:22:04.792Z,22.77
2022-11-21T13:24:44.226Z,16.83
2022-11-21T13:27:36.772Z,16.70
2022-11-21T13:30:08.836Z,16.12
2022-11-21T13:32:47.301Z,27.15
2022-11-21T13:35:14.953Z,15.77
2022-11-21T13:38:02.866Z,18.75
2022-11-21T13:40:30.188Z,15.48
2022-11-21T13:45:59.091Z,15.02
2022-11-21T13:49:02.262Z,14.68
2022-11-21T13:51:38.747Z,17.85
2022-11-21T13:54:38.753Z,19.27
2022-11-21T13:57:24.876Z,17.90
2022-11-21T14:00:22.532Z,16.77
2022-11-21T14:03:11.650Z,21.08
2022-11-21T14:06:03.633Z,20.02
2022-11-21T14:08:31.439Z,17.45
2022-11-21T14:10:58.918Z,18.02
2022-11-21T14:13:30.077Z,15.85
2022-11-21T14:16:41.266Z,22.55
2022-11-21T14:19:14.845Z,20.45
2022-11-21T14:21:45.965Z,16.50
2022-11-21T14:24:19.269Z,14.55
2022-11-21T14:26:49.352Z,16.08
2022-11-21T14:29:22.726Z,13.23
2022-11-21T14:31:50.948Z,15.35
2022-11-21T14:34:29.636Z,14.45
2022-11-21T14:37:03.079Z,11.45
2022-11-21T14:39:39.013Z,12.35
2022-11-21T14:42:13.747Z,17.05
2022-11-21T14:44:41.144Z,17.12
2022-11-21T14:47:25.081Z,15.35
2022-11-21T14:49:55.570Z,14.63
2022-11-21T14:52:33.545Z,13.10
2022-11-21T14:57:55.183Z,13.23
2022-11-21T15:00:57.394Z,13.60
2022-11-21T15:03:30.913Z,16.15
2022-11-21T15:06:04.617Z,18.40
2022-11-21T15:11:24.055Z,15.30
2022-11-21T15:14:14.903Z,16.80
2022-11-21T15:16:43.637Z,16.35
2022-11-21T15:19:11.332Z,18.40
2022-11-21T15:21:46.144Z,15.98
2022-11-21T15:24:33.042Z,14.80
2022-11-21T15:27:00.850Z,16.25
2022-11-21T15:29:32.325Z,19.80
2022-11-21T15:32:15.715Z,18.42
2022-11-21T15:34:44.257Z,16.58
2022-11-21T15:37:18.434Z,18.62
2022-11-21T15:39:48.281Z,19.87
2022-11-21T15:42:34.414Z,16.12
2022-11-21T15:45:21.191Z,19.30
2022-11-21T15:47:49.184Z,19.40
2022-11-21T15:50:17.262Z,18.00
2022-11-21T15:52:46.407Z,20.02
2022-11-21T15:55:25.948Z,20.48
2022-11-21T15:57:53.518Z,21.40
2022-11-21T16:00:20.860Z,18.92
2022-11-21T16:02:48.442Z,19.95
2022-11-21T16:05:16.005Z,13.70
2022-11-21T16:07:43.435Z,19.17
2022-11-21T16:10:18.308Z,18.52
2022-11-21T16:12:49.101Z,15.68
2022-11-21T16:15:16.739Z,17.55
2022-11-21T16:17:45.604Z,18.30
2022-11-21T16:20:13.272Z,17.80
2022-11-21T16:22:45.866Z,18.52
2022-11-21T16:25:15.794Z,17.50
2022-11-21T16:27:43.538Z,19.48
2022-11-21T16:30:11.694Z,20.17
2022-11-21T16:32:38.977Z,17.42
2022-11-21T16:35:07.365Z,18.17
2022-11-21T16:37:34.978Z,20.52
2022-11-21T16:40:02.497Z,37.30
2022-11-21T16:42:30.111Z,103.72
2022-11-21T16:44:57.471Z,78.57
2022-11-21T16:47:24.831Z,72.35
2022-11-21T16:49:52.458Z,55.42
2022-11-21T16:52:19.887Z,47.65
2022-11-21T16:54:47.370Z,34.85
2022-11-21T16:57:15.115Z,22.80
2022-11-21T16:59:42.518Z,26.85
2022-11-21T17:02:10.754Z,26.50
2022-11-21T17:04:38.354Z,28.45
2022-11-21T17:07:06.061Z,27.73
2022-11-21T17:09:33.572Z,40.70
2022-11-21T17:12:01.187Z,48.63
2022-11-21T17:14:28.892Z,37.67
2022-11-21T17:16:56.521Z,37.13
2022-11-21T17:19:24.084Z,38.58
2022-11-21T17:21:52.483Z,35.80
2022-11-21T17:24:19.839Z,30.70
2022-11-21T17:26:47.419Z,52.30
2022-11-21T17:29:14.872Z,72.00
2022-11-21T17:31:42.662Z,65.12
2022-11-21T17:34:10.341Z,66.57
2022-11-21T17:36:37.862Z,65.68
2022-11-21T17:39:05.165Z,64.82
2022-11-21T17:41:32.774Z,67.87
2022-11-21T17:44:01.118Z,58.00
2022-11-21T17:46:28.766Z,66.37
2022-11-21T17:48:58.967Z,58.58
2022-11-21T17:51:29.289Z,55.40
2022-11-21T17:53:56.925Z,44.92
2022-11-21T17:56:26.538Z,32.67
2022-11-21T17:58:54.173Z,31.42
2022-11-21T18:01:22.329Z,33.90
2022-11-21T18:04:14.682Z,32.90
2022-11-21T18:06:42.548Z,33.60
2022-11-21T18:09:11.254Z,27.50
2022-11-21T18:11:40.555Z,27.92
2022-11-21T18:14:10.304Z,29.52
2022-11-21T18:16:39.435Z,26.87
2022-11-21T18:19:09.199Z,29.02
2022-11-21T18:21:36.606Z,27.52
2022-11-21T18:24:04.276Z,23.10
2022-11-21T18:26:33.885Z,24.60
2022-11-21T18:29:28.673Z,37.65
2022-11-21T18:31:50.201Z,48.45
2022-11-21T18:34:17.582Z,45.95
2022-11-21T18:36:45.229Z,32.10
2022-11-21T18:39:15.281Z,27.75
2022-11-21T18:41:43.139Z,26.20
2022-11-21T18:44:11.382Z,28.40
2022-11-21T18:46:40.454Z,27.67
2022-11-21T18:49:08.586Z,23.08
2022-11-21T18:51:36.886Z,22.20
2022-11-21T18:54:08.372Z,26.70
2022-11-21T18:56:38.261Z,23.20
2022-11-21T18:59:06.461Z,20.23
2022-11-21T19:01:36.026Z,26.35
2022-11-21T19:04:03.613Z,25.08
2022-11-21T19:06:31.317Z,24.75
2022-11-21T19:08:58.900Z,30.70
2022-11-21T19:11:28.515Z,26.02
2022-11-21T19:13:57.172Z,24.80
2022-11-21T19:16:25.847Z,27.87
2022-11-21T19:21:43.832Z,26.40
2022-11-21T19:24:15.510Z,30.83
2022-11-21T19:26:42.904Z,30.83
2022-11-21T19:29:11.100Z,30.08
2022-11-21T19:31:44.526Z,28.77
2022-11-21T19:34:14.112Z,31.00
2022-11-21T19:36:42.375Z,36.72
2022-11-21T19:39:09.754Z,42.45
2022-11-21T19:41:37.644Z,39.08
2022-11-21T19:44:05.020Z,39.53
2022-11-21T19:46:34.383Z,36.08
2022-11-21T19:49:01.953Z,31.33
2022-11-21T19:51:35.015Z,38.75
2022-11-21T19:54:04.436Z,30.85
2022-11-21T19:56:32.097Z,39.63
2022-11-21T19:58:59.396Z,34.97
2022-11-21T20:01:29.056Z,31.95
2022-11-21T20:03:59.621Z,42.38
2022-11-21T20:06:29.285Z,39.88
2022-11-21T20:09:01.646Z,39.22
2022-11-21T20:11:30.166Z,39.17
2022-11-21T20:13:58.439Z,37.58
2022-11-21T20:16:31.074Z,43.67
2022-11-21T20:19:00.782Z,36.40
2022-11-21T20:21:28.875Z,32.65
2022-11-21T20:23:56.693Z,34.67
2022-11-21T20:26:25.181Z,31.27
2022-11-21T20:28:53.326Z,39.30
2022-11-21T20:31:22.882Z,35.15
2022-11-21T20:33:52.481Z,41.60
2022-11-21T20:36:21.780Z,36.30
2022-11-21T20:38:53.780Z,32.42
2022-11-21T20:41:23.065Z,30.58
2022-11-21T20:46:43.020Z,23.85
2022-11-21T20:49:10.811Z,26.90
2022-11-21T20:54:26.839Z,59.35
2022-11-21T20:56:54.324Z,72.47
2022-11-21T20:59:21.636Z,98.62
2022-11-21T21:01:49.258Z,78.97
2022-11-21T21:04:17.012Z,65.68
2022-11-21T21:06:44.317Z,58.95
2022-11-21T21:09:11.945Z,36.67
2022-11-21T21:11:54.651Z,36.72
2022-11-21T21:14:22.543Z,73.87
2022-11-21T21:16:50.343Z,40.22
2022-11-21T21:19:18.048Z,51.90
2022-11-21T21:21:45.660Z,36.45
2022-11-21T21:24:13.351Z,19.17
2022-11-21T21:26:43.791Z,33.75
2022-11-21T21:29:13.655Z,20.92
2022-11-21T21:31:46.810Z,21.50
2022-11-21T21:34:17.851Z,36.97
2022-11-21T21:36:45.286Z,40.33
2022-11-21T21:39:12.597Z,49.92
2022-11-21T21:41:44.203Z,35.28
2022-11-21T21:44:11.919Z,31.48
2022-11-21T21:46:39.545Z,31.37
2022-11-21T21:49:06.869Z,27.42
2022-11-21T21:51:35.935Z,30.95
2022-11-21T21:54:04.095Z,32.47
2022-11-21T21:56:31.487Z,32.75
2022-11-21T21:58:59.010Z,27.10
2022-11-21T22:01:31.069Z,29.52
2022-11-21T22:04:03.689Z,27.30
2022-11-21T22:06:33.368Z,26.95
2022-11-21T22:09:01.786Z,35.75
2022-11-21T22:11:31.396Z,27.40
2022-11-21T22:14:03.694Z,38.33
2022-11-21T22:16:31.860Z,43.85
2022-11-21T22:18:59.171Z,34.42
2022-11-21T22:21:34.436Z,34.50
2022-11-21T22:26:51.316Z,28.87
2022-11-21T22:29:18.942Z,34.03
2022-11-21T22:31:46.309Z,31.08
2022-11-21T22:34:14.347Z,49.30
2022-11-21T22:36:42.049Z,33.58
2022-11-21T22:39:09.605Z,42.20
2022-11-21T22:41:37.043Z,40.08
2022-11-21T22:44:04.822Z,45.53
2022-11-21T22:46:32.418Z,56.97
2022-11-21T22:48:59.759Z,40.30
2022-11-21T22:51:31.329Z,47.92
2022-11-21T22:53:58.698Z,42.33
2022-11-21T22:56:27.158Z,36.70
2022-11-21T22:58:54.887Z,39.80
2022-11-21T23:01:24.485Z,31.65
2022-11-21T23:03:52.518Z,36.80
2022-11-21T23:06:23.525Z,39.38
2022-11-21T23:08:52.325Z,32.28
2022-11-21T23:11:26.166Z,40.83
2022-11-21T23:13:55.420Z,34.70
2022-11-21T23:16:23.184Z,36.15
2022-11-21T23:18:54.482Z,39.13
2022-11-21T23:21:22.324Z,41.45
2022-11-21T23:23:50.060Z,28.73
2022-11-21T23:26:17.456Z,31.33
2022-11-21T23:28:44.964Z,39.25
2022-11-21T23:31:12.557Z,40.30
2022-11-21T23:33:39.968Z,36.50
2022-11-21T23:36:07.465Z,42.22
2022-11-21T23:38:35.099Z,34.80
2022-11-21T23:41:02.450Z,29.40
2022-11-21T23:43:29.730Z,35.08
2022-11-21T23:45:57.322Z,31.58
2022-11-21T23:48:24.737Z,47.22
2022-11-21T23:50:52.364Z,29.10
2022-11-21T23:53:20.659Z,36.42
2022-11-21T23:55:48.452Z,33.53
2022-11-21T23:58:16.368Z,28.77
